createdAt,value
2023-01-19T00:04:32.842Z,0.46
2023-01-19T00:14:41.787Z,0.52
2023-01-19T00:24:50.438Z,0.5
2023-01-19T00:34:59.053Z,0.64
2023-01-19T00:45:07.696Z,0.44
2023-01-19T00:55:16.340Z,0.49
2023-01-19T01:05:24.974Z,0.55
2023-01-19T01:15:32.794Z,0.58
2023-01-19T01:25:40.590Z,0.66
2023-01-19T01:35:48.511Z,0.66
2023-01-19T01:45:56.856Z,0.71
2023-01-19T01:56:04.786Z,0.48
2023-01-19T02:06:12.615Z,0.42
2023-01-19T02:16:20.493Z,0.53
2023-01-19T02:26:28.507Z,0.5
2023-01-19T02:36:36.359Z,0.54
2023-01-19T02:46:45.444Z,0.54
2023-01-19T02:56:53.345Z,0.42
2023-01-19T03:07:01.945Z,0.52
2023-01-19T03:17:10.900Z,0.36
2023-01-19T03:27:18.922Z,0.51
2023-01-19T03:37:26.861Z,0.45
2023-01-19T03:47:34.847Z,0.37
2023-01-19T03:57:42.924Z,0.28
2023-01-19T04:07:50.915Z,0.26
2023-01-19T04:17:58.978Z,1.61
2023-01-19T04:28:06.959Z,0.39
2023-01-19T04:38:14.931Z,0.41
2023-01-19T04:48:25.018Z,0.42
2023-01-19T04:58:25.790Z,0.31
2023-01-19T05:08:23.992Z,0.38
2023-01-19T05:18:31.969Z,0.58
2023-01-19T05:28:39.867Z,0.4
2023-01-19T05:38:47.874Z,0.45
2023-01-19T05:48:55.673Z,0.62
2023-01-19T05:59:03.614Z,0.58
2023-01-19T06:09:11.568Z,0.48
2023-01-19T06:19:19.430Z,0.49
2023-01-19T06:29:28.731Z,0.49
2023-01-19T06:39:35.162Z,0.64
2023-01-19T06:49:43.001Z,0.7
2023-01-19T06:59:50.935Z,0.47
2023-01-19T07:09:57.426Z,0.66
2023-01-19T07:20:05.626Z,0.73
2023-01-19T07:30:13.705Z,0.97
2023-01-19T07:40:23.921Z,1.02
2023-01-19T07:50:30.047Z,1.21
2023-01-19T08:00:38.322Z,1.17
2023-01-19T08:10:46.431Z,1.26
2023-01-19T08:20:54.530Z,1.19
2023-01-19T08:31:19.092Z,1.34
2023-01-19T08:41:03.310Z,1.44
2023-01-19T08:51:11.357Z,1.22
2023-01-19T09:01:23.374Z,0.91
2023-01-19T09:11:26.668Z,0.9
2023-01-19T09:21:24.775Z,1.39
2023-01-19T09:31:34.383Z,0.94
2023-01-19T09:41:45.412Z,0.97
2023-01-19T09:51:43.653Z,3.42
2023-01-19T10:01:51.904Z,1.22
2023-01-19T10:11:59.187Z,1.15
2023-01-19T10:22:07.229Z,1.19
2023-01-19T10:32:15.716Z,0.88
2023-01-19T10:42:23.868Z,0.65
2023-01-19T10:52:32.099Z,0.88
2023-01-19T11:02:42.047Z,1.07
2023-01-19T11:12:49.961Z,0.75
2023-01-19T11:22:58.730Z,0.77
2023-01-19T11:33:06.825Z,0.93
2023-01-19T11:43:14.825Z,0.67
2023-01-19T11:53:22.891Z,0.76
2023-01-19T12:03:31.045Z,1.23
2023-01-19T12:13:39.737Z,0.8
2023-01-19T12:23:47.733Z,0.63
2023-01-19T12:33:55.846Z,0.92
2023-01-19T12:44:03.883Z,1.03
2023-01-19T12:54:11.668Z,0.7
2023-01-19T13:04:19.632Z,1.01
2023-01-19T13:14:28.064Z,0.97
2023-01-19T13:24:36.116Z,0.85
2023-01-19T13:34:44.328Z,0.75
2023-01-19T13:44:52.303Z,0.54
2023-01-19T13:55:09.046Z,1.17
2023-01-19T14:15:08.103Z,1.08
2023-01-19T14:25:16.329Z,0.95
2023-01-19T14:35:24.519Z,0.94
2023-01-19T14:45:35.523Z,1.12
2023-01-19T14:55:33.504Z,0.93
2023-01-19T15:05:41.724Z,0.93
2023-01-19T15:15:49.672Z,0.94
2023-01-19T15:25:58.723Z,0.84
2023-01-19T15:36:07.423Z,0.68
2023-01-19T15:46:17.815Z,1.07
2023-01-19T16:06:21.320Z,0.97
2023-01-19T16:16:21.121Z,4.91
2023-01-19T16:26:31.812Z,3.62
2023-01-19T16:36:29.976Z,1.7
2023-01-19T16:46:38.224Z,2.85
2023-01-19T16:56:46.542Z,1.64
2023-01-19T17:06:57.872Z,2.91
2023-01-19T17:16:56.209Z,2.37
2023-01-19T17:27:04.122Z,2.75
2023-01-19T17:37:12.544Z,2.44
2023-01-19T17:47:20.660Z,1.97
2023-01-19T17:57:29.177Z,2.92
2023-01-19T18:07:38.148Z,1.49
2023-01-19T18:17:46.305Z,0.98
2023-01-19T18:27:57.353Z,1.31
2023-01-19T18:37:55.447Z,0.98
2023-01-19T18:48:06.292Z,1.27
2023-01-19T19:08:07.991Z,1.63
2023-01-19T19:18:18.933Z,1.27
2023-01-19T19:38:19.455Z,1.03
2023-01-19T19:48:29.090Z,0.61
2023-01-19T19:58:38.498Z,0.56
2023-01-19T20:08:48.981Z,0.82
2023-01-19T20:18:47.184Z,0.54
2023-01-19T20:28:55.641Z,0.87
2023-01-19T20:39:03.766Z,0.71
2023-01-19T20:49:13.756Z,0.91
2023-01-19T20:59:11.900Z,1.11
2023-01-19T21:09:20.572Z,1.42
2023-01-19T21:19:30.707Z,0.5
2023-01-19T21:29:28.717Z,0.81
2023-01-19T21:39:39.217Z,1.7
2023-01-19T21:49:38.415Z,0.49
2023-01-19T21:59:46.314Z,0.63
2023-01-19T22:09:54.886Z,0.43
2023-01-19T22:20:06.444Z,0.27
2023-01-19T22:30:09.504Z,0.33
2023-01-19T22:40:09.418Z,0.34
2023-01-19T22:50:18.079Z,0.26
2023-01-19T23:00:26.926Z,0.39
2023-01-19T23:10:38.036Z,0.32
2023-01-19T23:20:36.319Z,0.38
2023-01-19T23:30:44.790Z,0.35
2023-01-19T23:40:52.799Z,0.33
2023-01-19T23:51:01.231Z,0.47
